createdAt,value
2023-04-24T00:01:56.295Z,61.23721
2023-04-24T00:06:57.861Z,61.53453
2023-04-24T00:11:59.597Z,63.45926
2023-04-24T00:17:01.358Z,63.31551
2023-04-24T00:22:02.765Z,64.81401
2023-04-24T00:27:04.278Z,64.30005
2023-04-24T00:32:05.653Z,65.49419
2023-04-24T00:37:06.946Z,65.18326
2023-04-24T00:42:08.195Z,67.78273
2023-04-24T00:47:09.459Z,67.5743
2023-04-24T00:52:10.924Z,70.30642
2023-04-24T00:57:12.170Z,69.95055
2023-04-24T01:02:14.132Z,70.26449
2023-04-24T01:07:15.506Z,71.40714
2023-04-24T01:12:17.013Z,73.07972
2023-04-24T01:17:18.246Z,71.20065
2023-04-24T01:22:19.544Z,71.76209
2023-04-24T01:27:20.895Z,69.0735
2023-04-24T01:32:22.203Z,67.07666
2023-04-24T01:37:23.495Z,70.11176
2023-04-24T01:42:24.908Z,67.15673
2023-04-24T01:47:26.277Z,67.32951
2023-04-24T01:52:27.644Z,68.61162
2023-04-24T01:57:29.216Z,69.59485
2023-04-24T02:02:30.555Z,69.54704
2023-04-24T02:07:31.969Z,69.7317
2023-04-24T02:12:33.578Z,67.54827
2023-04-24T02:17:34.833Z,66.66821
2023-04-24T02:22:36.108Z,68.05241
2023-04-24T02:27:37.580Z,70.93463
2023-04-24T02:32:38.984Z,70.07789
2023-04-24T02:37:40.255Z,77.33553
2023-04-24T02:42:41.856Z,73.64468
2023-04-24T02:47:43.373Z,77.44161
2023-04-24T02:52:44.679Z,77.91031
2023-04-24T02:57:46.087Z,71.87784
2023-04-24T03:02:47.431Z,74.90432
2023-04-24T03:07:48.949Z,69.82512
2023-04-24T03:12:50.512Z,71.10005
2023-04-24T03:17:51.889Z,71.0484
2023-04-24T03:22:53.250Z,70.38966
2023-04-24T03:27:54.855Z,68.65138
2023-04-24T03:32:56.451Z,75.14948
2023-04-24T03:37:57.854Z,75.47289
2023-04-24T03:42:59.356Z,69.88524
2023-04-24T03:48:00.727Z,70.0856
2023-04-24T03:53:02.198Z,72.16321
2023-04-24T03:58:03.692Z,70.30881
2023-04-24T04:03:05.559Z,72.81847
2023-04-24T04:08:07.353Z,68.12917
2023-04-24T04:13:08.916Z,65.33944
2023-04-24T04:18:10.406Z,67.99377
2023-04-24T04:23:12.012Z,66.21053
2023-04-24T04:28:13.743Z,67.55714
2023-04-24T04:33:15.169Z,65.84124
2023-04-24T04:38:16.435Z,67.95222
2023-04-24T04:43:17.792Z,66.18994
2023-04-24T04:48:19.145Z,68.32068
2023-04-24T04:53:20.825Z,68.62151
2023-04-24T04:58:22.228Z,66.56294
2023-04-24T05:03:23.839Z,68.5138
2023-04-24T05:08:27.415Z,68.46829
2023-04-24T05:13:39.013Z,67.81086
2023-04-24T05:18:41.374Z,66.64936
2023-04-24T05:23:42.790Z,64.43957
2023-04-24T05:28:44.055Z,64.96364
2023-04-24T05:33:45.316Z,62.8113
2023-04-24T05:38:46.683Z,62.43025
2023-04-24T05:43:48.056Z,62.03839
2023-04-24T05:48:49.484Z,58.98538
2023-04-24T05:53:51.042Z,56.82882
2023-04-24T05:58:52.372Z,58.41203
2023-04-24T06:03:53.890Z,57.60046
2023-04-24T06:08:55.596Z,55.81434
2023-04-24T06:13:57.302Z,55.87718
2023-04-24T06:18:58.887Z,58.92095
2023-04-24T06:24:01.256Z,54.8472
2023-04-24T06:29:02.560Z,57.4604
2023-04-24T06:34:03.954Z,54.7915
2023-04-24T06:39:05.252Z,52.86949
2023-04-24T06:44:06.835Z,50.77561
2023-04-24T06:49:08.224Z,48.73146
2023-04-24T06:54:09.511Z,47.98539
2023-04-24T06:59:10.907Z,47.44186
2023-04-24T07:04:12.279Z,45.96785
2023-04-24T07:09:13.776Z,42.64378
2023-04-24T07:14:15.245Z,42.18561
2023-04-24T07:19:16.704Z,40.33619
2023-04-24T07:24:19.024Z,36.41103
2023-04-24T07:29:21.259Z,36.56454
2023-04-24T07:34:22.805Z,34.04073
2023-04-24T07:39:24.346Z,31.65281
2023-04-24T07:44:25.635Z,31.62742
2023-04-24T07:49:26.862Z,31.3719
2023-04-24T07:54:28.159Z,30.42941
2023-04-24T07:59:29.619Z,28.47575
2023-04-24T08:04:31.187Z,28.90396
2023-04-24T08:09:32.648Z,27.9919
2023-04-24T08:14:33.904Z,28.54676
2023-04-24T08:19:35.477Z,26.9408
2023-04-24T08:24:36.900Z,25.75701
2023-04-24T08:29:38.373Z,25.41412
2023-04-24T08:34:39.777Z,24.49092
2023-04-24T08:39:41.164Z,24.95195
2023-04-24T08:44:42.847Z,23.63679
2023-04-24T08:49:44.522Z,22.5926
2023-04-24T08:54:46.055Z,21.43404
2023-04-24T08:59:47.739Z,20.91018
2023-04-24T09:04:49.421Z,20.19235
2023-04-24T09:09:50.822Z,21.55209
2023-04-24T09:14:52.221Z,21.17916
2023-04-24T09:19:53.908Z,21.12946
2023-04-24T09:24:55.483Z,17.99431
2023-04-24T09:29:57.087Z,18.80062
2023-04-24T09:34:58.459Z,19.25123
2023-04-24T09:39:59.762Z,19.87513
2023-04-24T09:45:12.098Z,21.38697
2023-04-24T09:50:16.153Z,21.29208
2023-04-24T09:55:18.454Z,22.01772
2023-04-24T10:00:20.293Z,20.531
2023-04-24T10:05:21.871Z,19.64516
2023-04-24T10:10:23.431Z,20.6886
2023-04-24T10:15:25.320Z,21.436
2023-04-24T10:20:26.892Z,19.93763
2023-04-24T10:25:28.238Z,19.943
2023-04-24T10:30:29.549Z,19.73528
2023-04-24T10:35:30.980Z,20.31546
2023-04-24T10:40:32.241Z,19.87319
2023-04-24T10:45:33.616Z,19.97471
2023-04-24T10:50:35.173Z,18.78666
2023-04-24T10:55:36.602Z,18.7665
2023-04-24T11:00:38.100Z,20.75194
2023-04-24T11:05:39.489Z,19.57936
2023-04-24T11:10:41.020Z,19.69175
2023-04-24T11:15:42.499Z,18.40812
2023-04-24T11:20:43.788Z,18.47817
2023-04-24T11:25:45.525Z,18.49702
2023-04-24T11:30:47.224Z,19.81654
2023-04-24T11:35:48.790Z,19.42687
2023-04-24T11:40:50.401Z,18.88039
2023-04-24T11:45:52.307Z,19.59759
2023-04-24T11:50:53.745Z,20.07845
2023-04-24T11:55:55.348Z,19.91575
2023-04-24T12:00:56.706Z,18.71435
2023-04-24T12:05:58.314Z,19.38244
2023-04-24T12:10:59.679Z,18.71867
2023-04-24T12:16:01.059Z,18.19845
2023-04-24T12:21:02.499Z,18.00226
2023-04-24T12:26:04.578Z,18.26993
2023-04-24T12:31:06.260Z,17.65835
2023-04-24T12:36:07.614Z,18.35404
2023-04-24T12:41:09.088Z,18.25699
2023-04-24T12:46:10.749Z,18.12662
2023-04-24T12:51:12.080Z,18.3957
2023-04-24T12:56:14.262Z,18.56952
2023-04-24T13:01:15.745Z,17.61664
2023-04-24T13:06:17.352Z,17.71205
2023-04-24T13:11:18.920Z,17.98824
2023-04-24T13:16:20.282Z,17.96941
2023-04-24T13:21:21.896Z,17.76921
2023-04-24T13:26:23.681Z,17.41733
2023-04-24T13:31:25.262Z,18.91489
2023-04-24T13:36:26.691Z,21.38497
2023-04-24T13:41:27.973Z,21.56029
2023-04-24T13:46:29.430Z,21.0924
2023-04-24T13:51:31.226Z,21.20901
2023-04-24T13:56:33.265Z,22.03437
2023-04-24T14:01:34.665Z,20.0437
2023-04-24T14:06:36.315Z,20.75987
2023-04-24T14:11:37.826Z,19.75606
2023-04-24T14:16:39.582Z,19.96859
2023-04-24T14:21:41.178Z,19.73196
2023-04-24T14:26:42.611Z,20.34551
2023-04-24T14:31:44.252Z,20.58075
2023-04-24T14:36:45.659Z,21.04385
2023-04-24T14:41:47.227Z,20.81004
2023-04-24T14:46:48.857Z,21.40421
2023-04-24T14:51:50.167Z,21.512
2023-04-24T14:56:51.484Z,21.28336
2023-04-24T15:01:59.137Z,21.68495
2023-04-24T15:07:10.430Z,21.21274
2023-04-24T15:12:12.025Z,21.83326
2023-04-24T15:17:13.656Z,22.1543
2023-04-24T15:22:16.115Z,21.85171
2023-04-24T15:27:17.623Z,22.74513
2023-04-24T15:32:19.292Z,23.88498
2023-04-24T15:37:20.650Z,23.9215
2023-04-24T15:42:21.916Z,23.069
2023-04-24T15:47:23.449Z,24.12803
2023-04-24T15:52:24.741Z,25.30739
2023-04-24T15:57:26.120Z,25.52848
2023-04-24T16:02:27.558Z,26.36095
2023-04-24T16:07:29.225Z,27.10238
2023-04-24T16:12:30.470Z,27.44746
2023-04-24T16:17:31.809Z,27.72342
2023-04-24T16:22:33.384Z,27.50506
2023-04-24T16:27:34.934Z,28.02096
2023-04-24T16:32:36.651Z,28.20357
2023-04-24T16:37:38.349Z,28.67781
2023-04-24T16:42:39.906Z,29.21496
2023-04-24T16:47:41.428Z,29.68042
2023-04-24T16:52:42.826Z,29.85876
2023-04-24T16:57:44.152Z,30.10861
2023-04-24T17:02:45.860Z,30.93611
2023-04-24T17:07:47.545Z,31.3771
2023-04-24T17:12:49.122Z,31.48245
2023-04-24T17:17:50.902Z,31.65704
2023-04-24T17:22:52.232Z,31.32041
2023-04-24T17:27:53.592Z,30.52961
2023-04-24T17:32:55.084Z,30.25127
2023-04-24T17:37:56.385Z,30.39516
2023-04-24T17:42:57.775Z,30.85634
2023-04-24T17:47:59.397Z,31.11732
2023-04-24T17:53:00.812Z,31.22166
2023-04-24T17:58:02.374Z,31.16792
2023-04-24T18:03:03.975Z,31.53412
2023-04-24T18:08:05.422Z,31.61879
2023-04-24T18:13:07.106Z,31.635
2023-04-24T18:18:08.713Z,31.5671
2023-04-24T18:23:10.370Z,32.00914
2023-04-24T18:28:11.931Z,32.17784
2023-04-24T18:33:13.534Z,33.58071
2023-04-24T18:38:15.096Z,34.04769
2023-04-24T18:43:16.625Z,34.09526
2023-04-24T18:48:18.222Z,35.01384
2023-04-24T18:53:19.813Z,35.16152
2023-04-24T18:58:21.066Z,35.17248
2023-04-24T19:03:22.968Z,36.06299
2023-04-24T19:08:24.507Z,36.94152
2023-04-24T19:13:25.921Z,37.87163
2023-04-24T19:18:27.305Z,38.53631
2023-04-24T19:23:28.889Z,39.43694
2023-04-24T19:28:30.255Z,39.81122
2023-04-24T19:33:31.534Z,39.80186
2023-04-24T19:38:33.100Z,40.16391
2023-04-24T19:43:34.604Z,41.08876
2023-04-24T19:48:36.328Z,40.28012
2023-04-24T19:53:37.873Z,40.32347
2023-04-24T19:58:39.533Z,41.76276
2023-04-24T20:03:41.334Z,41.74787
2023-04-24T20:08:42.859Z,42.14404
2023-04-24T20:13:44.185Z,42.38484
2023-04-24T20:18:45.756Z,42.10952
2023-04-24T20:23:47.130Z,42.58926
2023-04-24T20:28:48.661Z,42.87138
2023-04-24T20:33:50.440Z,43.05762
2023-04-24T20:38:51.983Z,43.46502
2023-04-24T20:43:53.583Z,43.81147
2023-04-24T20:48:54.963Z,43.95445
2023-04-24T20:53:56.536Z,43.91445
2023-04-24T20:58:57.916Z,44.22924
2023-04-24T21:03:59.497Z,45.179
2023-04-24T21:09:00.997Z,44.32012
2023-04-24T21:14:02.275Z,44.5252
2023-04-24T21:19:03.846Z,44.74674
2023-04-24T21:24:05.152Z,44.24069
2023-04-24T21:29:06.509Z,45.95839
2023-04-24T21:34:08.074Z,47.25933
2023-04-24T21:39:09.687Z,47.22823
2023-04-24T21:44:11.277Z,47.95011
2023-04-24T21:49:12.832Z,49.36626
2023-04-24T21:54:14.427Z,48.84799
2023-04-24T21:59:15.977Z,50.39868
2023-04-24T22:04:17.821Z,50.16169
2023-04-24T22:09:19.507Z,49.8788
2023-04-24T22:14:21.138Z,50.97212
2023-04-24T22:19:22.906Z,53.06635
2023-04-24T22:24:24.685Z,51.52631
2023-04-24T22:29:26.422Z,52.04331
2023-04-24T22:34:27.982Z,51.85723
2023-04-24T22:39:29.363Z,49.90456
2023-04-24T22:44:30.670Z,50.16313
2023-04-24T22:49:32.020Z,50.77526
2023-04-24T22:54:33.325Z,51.20924
2023-04-24T22:59:34.767Z,53.21372
2023-04-24T23:04:36.515Z,52.82197
2023-04-24T23:09:37.781Z,51.15967
2023-04-24T23:14:39.128Z,50.73286
2023-04-24T23:19:40.605Z,50.79902
2023-04-24T23:24:41.842Z,50.91315
2023-04-24T23:29:43.315Z,50.71893
2023-04-24T23:34:44.824Z,51.618
2023-04-24T23:39:46.360Z,53.39193
2023-04-24T23:44:47.920Z,53.39713
2023-04-24T23:49:49.652Z,52.92347
2023-04-24T23:54:51.190Z,53.44702
2023-04-24T23:59:52.982Z,54.12438
